Aeroporto :
LOGIN :

Iscrizione | Disclaimer

   EN    FR    IT 

 










Sommario :    VFR   VFR Marginale   IFR   IFR Intensivo   IFR Molto Intensivo
Visibilità : 
Base nubi : 
>= 8 km
>= 3000ft
5 / 8 km
1000 / 3000 ft
1500m / 5 km
500 / 1000 ft
800 / 1500m
200 / 500 ft
< 800m
< 200 ft
Simboli :   Temporali  Nebbia  Neve Forte  Precipitazioni Forti  Vento > 20 kt
SIGMETs :   Varie  Temporali  Ghiacco  Turbolenza  Onda orograficha  Ceneri Vulcaniche







- Altitudine del aeroporto : 412 ft
- Codice IATA : ORE
- Carte del aeroporto


LFOJ - Orleans

ULTIMO METAR :
  • 191500Z AUTO 29005KT 9999 ///CB 17/12 Q1007

METARs OBSOLETI :
  • 191430Z AUTO 30006KT 9999 ///CB 17/11 Q1007
  • 191400Z AUTO 31007KT 270V330 9999 FEW020 OVC072 17/12 Q1007
  • 191330Z AUTO 32007KT 9999 SCT020 SCT032 BKN041 16/12 Q1007
  • 191300Z AUTO 30008KT 9999 FEW019 SCT024 OVC070 16/11 Q1007
  • 191230Z AUTO 30008KT 6000 SCT017 BKN024 BKN037 16/12 Q1007

Previsioni scadute.
Nessun NOTAM noto per questo aeroporto.
1 SIGMET conosciuto per la FIR Paris (LFFF) :
 
Temporali affogati
LFFF SIGMET 4 VALID 191400/191600 LFPW
LFFF PARIS FIR/UIR EMBD TS OBS WI N4830 E00430 - N4815 E00400 - N4815 E00300 - N4830 E00200 - N4845 E00215 - N4830 E00300 - N4830 E00345 - N4845 E00415 - N4830 E00430 TOP FL330 MOV S 10KT NC=



MetMap, La meteo Aeronautica in un colpo d'occhio ! - Copyright ORBIFLY Dicembre 2007 - Disclaimer

ORBIFLY MET'MAP TEAM :

Programmazione e sviluppo : Alexandra Zaïnal
Concezione e sviluppo : Baudouin d'Aumeries
Co-Programmazione e sviluppo : Marc-Olivier Méhu
Supporto tecnico e logistico : Manuel Goepfert
Aiuto per la traduzione : Arnaldo La Scala

Contatto : metmap@orbifly.com




FONTI E CREDITI :

   NOAA